Time;durP1;ratioP1;P1;durP2;ratioP2;P2;SDS_P1;SDS_P2;PMS_P1;PMS_P2;Temp;Humidity;BMP_temperature;BMP_pressure;BME280_temperature;BME280_humidity;BME280_pressure;Samples;Min_cycle;Max_cycle;Signal;HPM_P1;HPM_P2
2021/09/22 00:01:57;;;;;;;11.50;6.00;;;14.10;89.00;;;;;;5034894;28;20095;-75
2021/09/22 00:04:23;;;;;;;10.57;5.43;;;14.10;89.20;;;;;;5034794;28;20025;-76
2021/09/22 00:06:49;;;;;;;10.70;5.50;;;14.10;89.20;;;;;;5034788;28;20347;-76
2021/09/22 00:09:15;;;;;;;11.35;5.75;;;14.10;89.30;;;;;;5034915;28;20057;-75
2021/09/22 00:11:40;;;;;;;10.20;5.05;;;14.10;89.40;;;;;;5034729;28;20017;-75
2021/09/22 00:14:06;;;;;;;12.75;5.93;;;14.00;89.50;;;;;;5034834;28;20021;-76
2021/09/22 00:16:32;;;;;;;10.40;5.55;;;14.00;89.60;;;;;;5034334;28;20354;-75
2021/09/22 00:18:58;;;;;;;11.32;5.63;;;13.90;89.60;;;;;;5034780;28;20029;-76
2021/09/22 00:21:23;;;;;;;10.50;5.32;;;14.00;89.80;;;;;;5034118;28;20026;-75
2021/09/22 00:23:49;;;;;;;12.48;5.82;;;13.90;89.80;;;;;;5034753;28;20108;-75
2021/09/22 00:26:15;;;;;;;9.18;4.93;;;13.90;89.90;;;;;;5034703;28;20057;-75
2021/09/22 00:28:41;;;;;;;10.73;6.30;;;13.90;89.90;;;;;;5032715;28;20028;-74
2021/09/22 00:31:07;;;;;;;11.48;6.15;;;13.90;90.00;;;;;;5034728;28;20450;-77
2021/09/22 00:33:33;;;;;;;12.05;5.78;;;13.90;90.00;;;;;;5033752;28;20057;-77
2021/09/22 00:35:59;;;;;;;9.80;6.03;;;13.80;90.10;;;;;;5034702;28;20519;-77
2021/09/22 00:38:25;;;;;;;14.02;5.95;;;13.80;90.30;;;;;;5033853;28;20010;-75
2021/09/22 00:40:51;;;;;;;11.23;5.80;;;13.80;90.20;;;;;;5034412;28;20028;-75
2021/09/22 00:43:17;;;;;;;12.88;5.95;;;13.80;90.20;;;;;;5034386;28;20434;-75
2021/09/22 00:45:43;;;;;;;12.85;6.22;;;13.80;90.20;;;;;;5033679;28;20032;-76
2021/09/22 00:48:09;;;;;;;10.70;5.57;;;13.80;90.20;;;;;;5034022;28;20409;-76
2021/09/22 00:50:35;;;;;;;13.75;6.63;;;13.80;90.30;;;;;;5033703;28;20018;-76
2021/09/22 00:53:02;;;;;;;10.48;5.57;;;13.80;90.30;;;;;;5034130;28;20083;-76
2021/09/22 00:55:27;;;;;;;10.38;5.55;;;13.70;90.30;;;;;;5033547;28;20021;-76
2021/09/22 00:57:55;;;;;;;10.43;5.47;;;13.70;90.30;;;;;;5049381;28;20364;-76
2021/09/22 01:00:24;;;;;;;10.95;5.55;;;13.70;90.40;;;;;;5032163;28;20436;-76
2021/09/22 01:02:50;;;;;;;11.18;5.95;;;13.70;90.40;;;;;;5033248;28;20468;-76
2021/09/22 01:05:25;;;;;;;9.95;5.28;;;13.70;90.40;;;;;;5033995;28;20029;-76
2021/09/22 01:07:51;;;;;;;10.63;4.75;;;13.70;90.60;;;;;;5034192;28;20097;-76
2021/09/22 01:10:18;;;;;;;11.75;5.30;;;13.60;90.50;;;;;;5033971;28;20057;-77
2021/09/22 01:12:44;;;;;;;10.32;5.57;;;13.60;90.60;;;;;;5033040;28;20422;-76
2021/09/22 01:15:11;;;;;;;13.60;5.65;;;13.60;90.60;;;;;;5033676;28;20057;-76
2021/09/22 01:17:37;;;;;;;9.98;5.55;;;13.60;90.60;;;;;;5031852;28;20017;-76
2021/09/22 01:20:06;;;;;;;11.10;6.22;;;13.60;90.60;;;;;;5049028;28;20025;-75
2021/09/22 01:22:31;;;;;;;14.00;5.75;;;13.60;90.60;;;;;;5033060;28;20014;-75
2021/09/22 01:24:58;;;;;;;12.15;6.30;;;13.60;90.60;;;;;;5033848;28;20022;-75
2021/09/22 01:27:25;;;;;;;12.95;6.47;;;13.60;90.70;;;;;;5032910;28;20104;-75
2021/09/22 01:29:51;;;;;;;9.38;4.95;;;13.60;90.70;;;;;;5033662;28;20018;-75
2021/09/22 01:32:17;;;;;;;11.02;5.45;;;13.60;90.70;;;;;;5033629;28;20010;-75
2021/09/22 01:34:42;;;;;;;11.77;5.75;;;13.60;90.70;;;;;;5032435;28;20049;-77
2021/09/22 01:37:08;;;;;;;9.02;5.40;;;13.60;90.80;;;;;;5033513;28;20021;-77
2021/09/22 01:39:42;;;;;;;11.45;5.22;;;13.50;90.80;;;;;;5032782;28;20064;-78
2021/09/22 01:42:09;;;;;;;12.07;6.05;;;13.50;90.80;;;;;;5033188;28;20025;-77
2021/09/22 01:44:36;;;;;;;11.93;5.93;;;13.50;90.80;;;;;;5032360;28;20049;-77
2021/09/22 01:47:03;;;;;;;11.73;5.75;;;13.50;90.90;;;;;;5032948;28;20021;-77
2021/09/22 01:49:29;;;;;;;10.65;5.78;;;13.50;90.90;;;;;;5032290;28;20100;-77
2021/09/22 01:51:57;;;;;;;11.30;5.75;;;13.50;90.90;;;;;;5033373;28;20057;-77
2021/09/22 01:54:23;;;;;;;11.93;5.95;;;13.50;90.90;;;;;;5032758;28;20125;-76
2021/09/22 01:56:49;;;;;;;10.95;5.80;;;13.40;90.90;;;;;;5033205;28;20151;-77
2021/09/22 01:59:16;;;;;;;11.98;5.60;;;13.50;91.00;;;;;;5033123;28;20539;-77
2021/09/22 02:01:41;;;;;;;10.57;6.03;;;13.40;91.00;;;;;;5030989;28;20018;-77
2021/09/22 02:04:07;;;;;;;9.20;5.20;;;13.40;91.00;;;;;;5047890;28;20350;-77
2021/09/22 02:06:33;;;;;;;10.80;5.50;;;13.40;91.10;;;;;;5032187;28;20339;-77
2021/09/22 02:08:58;;;;;;;12.48;6.13;;;13.40;91.10;;;;;;5032853;28;20339;-77
2021/09/22 02:11:24;;;;;;;10.80;5.47;;;13.40;91.10;;;;;;5032321;28;20072;-77
2021/09/22 02:13:50;;;;;;;12.82;6.35;;;13.40;91.10;;;;;;5032658;28;20029;-77
2021/09/22 02:16:15;;;;;;;10.52;5.88;;;13.40;91.20;;;;;;5031327;28;20069;-76
2021/09/22 02:18:41;;;;;;;10.75;5.85;;;13.40;91.20;;;;;;5031953;28;20446;-76
2021/09/22 02:21:10;;;;;;;15.32;7.40;;;13.40;91.30;;;;;;5031248;28;20025;-76
2021/09/22 02:23:40;;;;;;;13.98;6.93;;;13.40;91.30;;;;;;5032099;28;20018;-76
2021/09/22 02:26:06;;;;;;;12.23;6.60;;;13.40;91.40;;;;;;5032433;28;20017;-76
2021/09/22 02:28:33;;;;;;;11.30;6.45;;;13.30;91.30;;;;;;5032306;28;20480;-76
2021/09/22 02:30:58;;;;;;;10.45;5.70;;;13.30;91.40;;;;;;5031198;28;20045;-75
2021/09/22 02:33:25;;;;;;;12.57;7.07;;;13.30;91.40;;;;;;5032200;28;20052;-76
2021/09/22 02:35:50;;;;;;;14.07;7.10;;;13.30;91.40;;;;;;5031478;28;20043;-76
2021/09/22 02:38:16;;;;;;;14.60;7.22;;;13.30;91.50;;;;;;5031458;28;20457;-76
2021/09/22 02:40:43;;;;;;;13.98;7.75;;;13.30;91.50;;;;;;5030891;28;20051;-75
2021/09/22 02:43:08;;;;;;;14.05;7.15;;;13.30;91.60;;;;;;5031766;28;20087;-76
2021/09/22 02:45:34;;;;;;;15.93;7.65;;;13.30;91.60;;;;;;5031085;28;20029;-75
2021/09/22 02:47:59;;;;;;;16.42;7.43;;;13.30;91.60;;;;;;5030088;28;20017;-76
2021/09/22 02:50:25;;;;;;;17.08;8.20;;;13.30;91.60;;;;;;5031346;28;20030;-76
2021/09/22 02:52:51;;;;;;;15.60;9.18;;;13.30;91.70;;;;;;5030453;28;20067;-76
2021/09/22 02:55:17;;;;;;;14.63;7.60;;;13.30;91.70;;;;;;5030014;28;20036;-76
2021/09/22 02:57:43;;;;;;;16.77;7.65;;;13.30;91.70;;;;;;5030635;28;20022;-76
2021/09/22 03:00:10;;;;;;;15.27;7.13;;;13.30;91.80;;;;;;5030135;28;20175;-75
2021/09/22 03:02:39;;;;;;;14.80;8.57;;;13.40;91.80;;;;;;5030831;28;20041;-74
2021/09/22 03:05:07;;;;;;;15.77;8.27;;;13.30;91.80;;;;;;5029913;28;20022;-75
2021/09/22 03:07:33;;;;;;;16.55;8.75;;;13.30;91.90;;;;;;5030530;28;20021;-74
2021/09/22 03:09:58;;;;;;;15.70;8.18;;;13.30;91.90;;;;;;5031229;28;20020;-75
2021/09/22 03:12:24;;;;;;;17.13;9.10;;;13.30;92.00;;;;;;5031149;28;20029;-75
2021/09/22 03:14:51;;;;;;;16.35;8.18;;;13.30;92.00;;;;;;5030368;28;20033;-74
2021/09/22 03:17:17;;;;;;;17.23;8.10;;;13.30;92.00;;;;;;5031468;28;20028;-75
2021/09/22 03:19:43;;;;;;;16.67;8.27;;;13.30;92.00;;;;;;5030534;28;20022;-75
2021/09/22 03:22:08;;;;;;;17.13;8.35;;;13.30;92.00;;;;;;5062288;28;20052;-75
2021/09/22 03:24:34;;;;;;;16.10;8.88;;;13.30;92.00;;;;;;5049520;28;20063;-75
2021/09/22 03:27:00;;;;;;;16.67;8.85;;;13.30;92.10;;;;;;5053003;28;20013;-75
2021/09/22 03:29:25;;;;;;;19.80;9.93;;;13.30;92.10;;;;;;5053891;28;20056;-75
2021/09/22 03:31:51;;;;;;;18.73;10.57;;;13.30;92.10;;;;;;5053716;28;20021;-75
2021/09/22 03:34:17;;;;;;;15.25;7.90;;;13.30;92.10;;;;;;5014282;28;1154877;-75
2021/09/22 03:36:42;;;;;;;16.63;9.27;;;13.30;92.10;;;;;;5055247;28;20028;-76
2021/09/22 03:39:08;;;;;;;15.63;9.18;;;13.30;92.10;;;;;;5055512;28;20021;-76
2021/09/22 03:41:34;;;;;;;14.85;8.60;;;13.30;92.10;;;;;;5053672;28;20021;-76
2021/09/22 03:44:00;;;;;;;16.23;8.65;;;13.30;92.10;;;;;;5055731;28;20027;-76
2021/09/22 03:46:25;;;;;;;16.52;8.85;;;13.30;92.10;;;;;;5055068;28;20017;-76
2021/09/22 03:48:51;;;;;;;15.57;8.90;;;13.30;92.10;;;;;;5054322;28;20491;-75
2021/09/22 03:51:17;;;;;;;16.70;8.52;;;13.20;92.10;;;;;;5055369;28;20021;-75
2021/09/22 03:53:42;;;;;;;14.82;8.43;;;13.30;92.10;;;;;;5054546;28;20032;-75
2021/09/22 03:56:08;;;;;;;15.27;8.55;;;13.20;92.10;;;;;;5055244;28;20021;-75
2021/09/22 03:58:34;;;;;;;17.00;8.40;;;13.20;92.20;;;;;;5069796;28;20383;-74
2021/09/22 04:00:59;;;;;;;16.13;8.73;;;13.20;92.20;;;;;;5055111;28;20013;-78
2021/09/22 04:03:25;;;;;;;15.63;7.90;;;13.20;92.20;;;;;;5054148;28;20346;-78
2021/09/22 04:05:51;;;;;;;17.95;8.63;;;13.20;92.20;;;;;;5043895;28;20025;-76
2021/09/22 04:08:16;;;;;;;15.40;7.82;;;13.20;92.30;;;;;;5050146;28;20070;-78
2021/09/22 04:10:42;;;;;;;14.50;8.60;;;13.20;92.30;;;;;;5042160;28;20109;-76
2021/09/22 04:13:08;;;;;;;17.08;7.95;;;13.20;92.30;;;;;;5041279;28;20038;-76
2021/09/22 04:15:33;;;;;;;17.60;8.32;;;13.20;92.30;;;;;;5044687;28;20029;-75
2021/09/22 04:17:59;;;;;;;17.65;8.68;;;13.20;92.30;;;;;;5034821;28;20306;-76
2021/09/22 04:20:25;;;;;;;16.55;8.77;;;13.20;92.30;;;;;;5045532;28;20025;-77
2021/09/22 04:22:51;;;;;;;18.67;8.68;;;13.20;92.30;;;;;;5034020;28;20469;-75
2021/09/22 04:25:17;;;;;;;16.67;8.48;;;13.10;92.30;;;;;;5035830;28;20076;-77
2021/09/22 04:27:42;;;;;;;18.02;8.45;;;13.10;92.40;;;;;;5046112;28;20473;-77
2021/09/22 04:30:09;;;;;;;17.15;8.65;;;13.10;92.40;;;;;;5036516;28;20377;-78
2021/09/22 04:32:35;;;;;;;16.98;8.57;;;13.10;92.40;;;;;;5038942;28;20102;-72
2021/09/22 04:35:01;;;;;;;17.17;8.23;;;13.10;92.40;;;;;;5038868;28;20084;-76
2021/09/22 04:37:34;;;;;;;15.82;7.93;;;13.10;92.40;;;;;;5032650;28;20084;-76
2021/09/22 04:40:00;;;;;;;16.92;8.85;;;13.10;92.40;;;;;;5031651;28;20390;-76
2021/09/22 04:42:26;;;;;;;15.40;8.02;;;13.10;92.50;;;;;;5033753;28;20021;-76
2021/09/22 04:44:51;;;;;;;18.45;9.13;;;13.10;92.50;;;;;;5033087;28;20021;-76
2021/09/22 04:47:17;;;;;;;14.98;7.68;;;13.10;92.50;;;;;;5032444;28;20022;-76
2021/09/22 04:49:43;;;;;;;16.05;8.65;;;13.10;92.60;;;;;;5031290;28;20387;-74
2021/09/22 04:52:08;;;;;;;14.32;8.00;;;13.10;92.60;;;;;;5039026;28;20032;-75
2021/09/22 04:54:34;;;;;;;17.08;8.75;;;13.10;92.60;;;;;;5051816;28;20037;-74
2021/09/22 04:57:00;;;;;;;17.50;8.90;;;13.10;92.60;;;;;;5042553;28;20025;-74
2021/09/22 04:59:25;;;;;;;17.58;9.02;;;13.00;92.70;;;;;;5031496;28;20033;-75
2021/09/22 05:01:51;;;;;;;14.02;8.43;;;13.00;92.70;;;;;;5031051;28;20064;-75
2021/09/22 05:04:16;;;;;;;15.77;8.82;;;13.00;92.70;;;;;;5030716;28;20057;-74
2021/09/22 05:06:42;;;;;;;15.55;8.65;;;13.00;92.70;;;;;;5029609;28;20087;-74
2021/09/22 05:09:08;;;;;;;16.35;9.30;;;13.00;92.70;;;;;;5034316;28;20040;-75
2021/09/22 05:11:33;;;;;;;18.60;9.82;;;13.00;92.70;;;;;;5039268;28;20013;-75
2021/09/22 05:13:59;;;;;;;18.80;9.50;;;12.90;92.70;;;;;;5035384;28;20620;-75
2021/09/22 05:16:25;;;;;;;16.77;9.45;;;12.90;92.70;;;;;;5039169;28;20081;-74
2021/09/22 05:18:50;;;;;;;13.63;8.02;;;12.90;92.80;;;;;;5037726;28;20025;-74
2021/09/22 05:21:16;;;;;;;18.63;9.15;;;12.90;92.80;;;;;;5043616;28;20021;-74
2021/09/22 05:23:42;;;;;;;18.13;9.38;;;12.90;92.80;;;;;;5034562;28;20116;-74
2021/09/22 05:26:07;;;;;;;20.08;8.82;;;12.90;92.80;;;;;;5039694;28;20104;-75
2021/09/22 05:28:33;;;;;;;18.08;9.68;;;12.90;92.80;;;;;;5034957;28;20162;-75
2021/09/22 05:30:59;;;;;;;18.50;9.38;;;12.90;92.80;;;;;;5034343;28;20504;-74
2021/09/22 05:33:24;;;;;;;17.98;9.13;;;12.90;92.80;;;;;;5048056;28;20049;-77
2021/09/22 05:35:50;;;;;;;20.25;9.52;;;12.90;92.80;;;;;;5051896;28;20046;-74
2021/09/22 05:38:16;;;;;;;16.08;8.43;;;12.90;92.80;;;;;;5052982;28;20147;-75
2021/09/22 05:40:41;;;;;;;18.02;9.07;;;12.90;92.80;;;;;;5051067;28;20064;-74
2021/09/22 05:43:07;;;;;;;17.27;8.98;;;12.90;92.80;;;;;;5051821;28;20069;-74
2021/09/22 05:45:33;;;;;;;18.75;9.75;;;12.90;92.80;;;;;;5051763;28;20377;-74
2021/09/22 05:47:58;;;;;;;22.23;10.73;;;12.90;92.80;;;;;;5052096;28;20548;-74
2021/09/22 05:50:24;;;;;;;19.67;9.82;;;12.90;92.80;;;;;;5051301;28;20025;-75
2021/09/22 05:52:50;;;;;;;18.58;9.65;;;13.00;92.80;;;;;;5052286;28;20025;-75
2021/09/22 05:55:16;;;;;;;18.63;9.73;;;12.90;92.80;;;;;;5052674;28;20036;-75
2021/09/22 05:57:42;;;;;;;20.48;9.77;;;12.90;92.80;;;;;;5050780;28;20025;-74
2021/09/22 06:00:08;;;;;;;18.85;9.40;;;12.90;92.90;;;;;;5051611;28;20088;-74
2021/09/22 06:02:34;;;;;;;19.42;9.70;;;12.90;92.90;;;;;;5052534;28;20025;-75
2021/09/22 06:05:00;;;;;;;18.48;9.88;;;13.00;93.00;;;;;;5052112;28;20109;-75
2021/09/22 06:07:25;;;;;;;17.25;9.40;;;13.00;93.00;;;;;;5051213;28;20116;-75
2021/09/22 06:09:51;;;;;;;17.63;10.10;;;13.00;92.90;;;;;;5050631;28;20021;-75
2021/09/22 06:12:19;;;;;;;17.35;9.70;;;13.00;92.90;;;;;;5052268;28;20029;-74
2021/09/22 06:14:45;;;;;;;19.88;9.82;;;13.00;92.90;;;;;;5051692;28;20051;-74
2021/09/22 06:17:11;;;;;;;20.83;10.40;;;13.00;92.90;;;;;;5052742;28;20028;-74
2021/09/22 06:19:36;;;;;;;17.77;9.60;;;13.00;92.90;;;;;;5052383;28;20025;-74
2021/09/22 06:22:02;;;;;;;18.77;10.43;;;13.10;92.90;;;;;;5050318;28;20192;-74
2021/09/22 06:24:28;;;;;;;21.85;10.50;;;13.10;92.90;;;;;;5050843;28;20021;-75
2021/09/22 06:26:55;;;;;;;19.15;10.32;;;13.10;92.90;;;;;;5050331;28;20025;-74
2021/09/22 06:29:21;;;;;;;21.45;10.55;;;13.10;92.90;;;;;;5052164;28;20025;-74
2021/09/22 06:31:47;;;;;;;19.52;9.63;;;13.20;92.90;;;;;;5051230;28;20116;-74
2021/09/22 06:34:12;;;;;;;19.73;10.05;;;13.20;92.90;;;;;;5051841;28;20132;-74
2021/09/22 06:36:38;;;;;;;21.10;10.73;;;13.20;92.90;;;;;;5052084;28;20474;-74
2021/09/22 06:39:06;;;;;;;19.13;9.77;;;13.20;92.90;;;;;;5050107;28;20078;-74
2021/09/22 06:41:33;;;;;;;17.83;10.13;;;13.20;92.90;;;;;;5050672;28;20412;-74
2021/09/22 06:44:00;;;;;;;18.80;10.25;;;13.20;93.00;;;;;;5051488;28;20101;-74
2021/09/22 06:46:26;;;;;;;19.63;10.13;;;13.20;92.90;;;;;;5050555;28;20378;-74
2021/09/22 06:48:51;;;;;;;19.17;9.40;;;13.20;93.00;;;;;;5051259;28;20037;-74
2021/09/22 06:51:20;;;;;;;21.52;9.93;;;13.20;93.00;;;;;;5051898;28;20021;-74
2021/09/22 06:53:46;;;;;;;19.38;9.65;;;13.30;92.90;;;;;;5050833;28;20381;-74
2021/09/22 06:56:12;;;;;;;20.23;10.65;;;13.30;92.90;;;;;;5051973;28;20086;-75
2021/09/22 06:58:37;;;;;;;21.13;11.43;;;13.30;92.90;;;;;;5051662;28;20449;-74
2021/09/22 07:01:03;;;;;;;22.63;10.48;;;13.30;92.90;;;;;;5049295;28;20025;-74
2021/09/22 07:03:29;;;;;;;17.92;10.40;;;13.30;92.90;;;;;;5067158;28;20104;-75
2021/09/22 07:05:54;;;;;;;17.85;9.75;;;13.40;92.80;;;;;;5066452;28;20057;-75
2021/09/22 07:08:20;;;;;;;15.43;8.65;;;13.40;92.80;;;;;;5052044;28;20125;-75
2021/09/22 07:10:46;;;;;;;18.88;9.77;;;13.50;92.80;;;;;;5049889;28;20027;-74
2021/09/22 07:13:12;;;;;;;18.63;10.10;;;13.50;92.70;;;;;;5051544;28;20040;-75
2021/09/22 07:15:38;;;;;;;21.90;10.82;;;13.50;92.70;;;;;;5051831;28;20037;-75
2021/09/22 07:18:05;;;;;;;24.67;10.70;;;13.50;92.70;;;;;;5051051;28;20017;-74
2021/09/22 07:20:30;;;;;;;20.58;10.43;;;13.60;92.70;;;;;;5051593;28;20032;-76
2021/09/22 07:22:56;;;;;;;24.35;11.23;;;13.60;92.70;;;;;;5051060;28;20028;-74
2021/09/22 07:25:22;;;;;;;23.63;11.52;;;13.60;92.70;;;;;;5051551;28;20029;-74
2021/09/22 07:27:48;;;;;;;23.95;11.77;;;13.60;92.70;;;;;;5050583;28;20541;-74
2021/09/22 07:30:14;;;;;;;25.85;12.13;;;13.60;92.70;;;;;;5051533;28;20112;-74
2021/09/22 07:32:45;;;;;;;18.52;10.38;;;13.60;92.70;;;;;;5051639;28;20025;-75
2021/09/22 07:35:12;;;;;;;16.70;8.35;;;13.70;92.80;;;;;;5051050;28;20128;-76
2021/09/22 07:37:38;;;;;;;22.10;11.30;;;13.70;92.70;;;;;;5051615;28;20029;-76
2021/09/22 07:40:05;;;;;;;20.67;10.98;;;13.70;92.70;;;;;;5050887;28;20086;-76
2021/09/22 07:42:30;;;;;;;20.35;10.38;;;13.70;93.00;;;;;;5050135;28;20112;-76
2021/09/22 07:44:56;;;;;;;22.23;11.43;;;13.70;92.70;;;;;;5050540;28;20083;-76
2021/09/22 07:47:23;;;;;;;20.77;11.48;;;13.70;92.70;;;;;;5051564;28;20145;-74
2021/09/22 07:49:49;;;;;;;23.40;11.13;;;13.80;92.70;;;;;;5051154;28;20460;-76
2021/09/22 07:52:16;;;;;;;18.58;9.98;;;13.80;92.70;;;;;;5051526;28;20029;-75
2021/09/22 07:54:42;;;;;;;21.90;11.27;;;13.90;92.60;;;;;;5050044;28;20056;-75
2021/09/22 07:57:10;;;;;;;23.52;11.07;;;14.00;92.60;;;;;;5050665;28;20152;-74
2021/09/22 07:59:36;;;;;;;20.70;10.65;;;14.00;92.50;;;;;;5051269;28;20087;-77
2021/09/22 08:02:02;;;;;;;20.55;11.13;;;14.00;92.50;;;;;;5050742;28;20033;-75
2021/09/22 08:04:28;;;;;;;20.58;11.25;;;14.10;92.50;;;;;;5051305;28;20075;-75
2021/09/22 08:06:56;;;;;;;22.95;12.23;;;14.10;92.50;;;;;;5049242;28;20021;-74
2021/09/22 08:09:22;;;;;;;23.60;12.27;;;14.10;92.40;;;;;;5050937;28;20025;-74
2021/09/22 08:11:48;;;;;;;21.10;11.43;;;14.20;92.40;;;;;;5052352;28;20112;-74
2021/09/22 08:14:14;;;;;;;22.13;10.88;;;14.20;92.40;;;;;;5052661;28;20041;-75
2021/09/22 08:16:39;;;;;;;22.35;12.60;;;14.30;92.40;;;;;;5053461;28;20021;-74
2021/09/22 08:19:05;;;;;;;21.88;11.88;;;14.30;92.40;;;;;;5054087;28;20110;-75
2021/09/22 08:21:30;;;;;;;21.55;11.82;;;14.30;92.40;;;;;;5054693;28;20032;-75
2021/09/22 08:23:56;;;;;;;23.60;11.98;;;14.40;92.30;;;;;;5053956;28;20033;-75
2021/09/22 08:26:22;;;;;;;24.02;12.27;;;14.40;92.30;;;;;;5054430;28;20028;-75
2021/09/22 08:28:48;;;;;;;20.15;11.27;;;14.50;92.20;;;;;;5054532;28;20033;-75
2021/09/22 08:31:13;;;;;;;22.98;12.27;;;14.50;92.20;;;;;;5053856;28;20060;-75
2021/09/22 08:33:39;;;;;;;18.15;10.43;;;14.60;92.20;;;;;;5054568;28;20378;-75
2021/09/22 08:36:08;;;;;;;21.30;11.95;;;14.60;92.10;;;;;;5052687;28;20048;-75
2021/09/22 08:38:34;;;;;;;19.58;10.35;;;14.70;92.00;;;;;;5054236;28;20025;-75
2021/09/22 08:40:59;;;;;;;20.02;11.05;;;14.80;91.90;;;;;;5053898;28;20453;-75
2021/09/22 08:43:26;;;;;;;20.77;10.60;;;14.90;91.90;;;;;;5054198;28;20032;-76
2021/09/22 08:45:52;;;;;;;20.25;9.00;;;14.90;91.80;;;;;;5054118;28;20036;-75
2021/09/22 08:48:18;;;;;;;20.55;10.68;;;15.00;91.70;;;;;;5052695;28;20043;-76
2021/09/22 08:50:45;;;;;;;17.73;8.52;;;15.10;91.60;;;;;;5069472;28;20457;-75
2021/09/22 08:53:11;;;;;;;18.77;9.90;;;15.10;91.50;;;;;;5053277;28;20021;-75
2021/09/22 08:55:36;;;;;;;17.88;9.77;;;15.20;91.50;;;;;;5053862;28;20045;-75
2021/09/22 08:58:03;;;;;;;20.33;9.25;;;15.20;91.40;;;;;;5051690;28;20013;-75
2021/09/22 09:00:28;;;;;;;16.45;9.02;;;15.30;91.40;;;;;;5052399;28;20428;-75
2021/09/22 09:02:54;;;;;;;21.05;10.18;;;15.30;91.40;;;;;;5051628;28;20410;-75
2021/09/22 09:05:21;;;;;;;15.65;8.57;;;15.30;91.30;;;;;;5053688;28;20031;-75
2021/09/22 09:08:00;;;;;;;19.77;10.40;;;15.40;91.20;;;;;;5053393;28;20017;-75
2021/09/22 09:10:31;;;;;;;22.80;11.23;;;15.30;91.10;;;;;;5054025;28;20017;-74
2021/09/22 09:13:05;;;;;;;15.55;8.80;;;15.40;91.10;;;;;;5053088;28;20100;-75
2021/09/22 09:15:44;;;;;;;20.80;10.43;;;15.40;91.10;;;;;;5053700;28;20029;-75
2021/09/22 09:18:13;;;;;;;18.95;9.68;;;15.50;91.00;;;;;;5052969;28;20021;-75
2021/09/22 09:20:38;;;;;;;17.75;9.18;;;15.50;90.90;;;;;;5052091;28;20373;-75
2021/09/22 09:23:12;;;;;;;21.58;11.02;;;15.60;90.80;;;;;;5050709;28;20036;-75
2021/09/22 09:26:00;;;;;;;20.95;9.43;;;15.70;90.80;;;;;;5053340;28;20540;-75
2021/09/22 09:28:29;;;;;;;14.05;7.88;;;15.70;90.70;;;;;;5053423;28;20083;-75
2021/09/22 09:31:00;;;;;;;18.42;7.88;;;15.70;90.60;;;;;;5053519;28;20031;-74
2021/09/22 09:33:38;;;;;;;18.55;9.95;;;15.80;90.60;;;;;;5053128;28;20041;-77
2021/09/22 09:36:15;;;;;;;17.15;9.10;;;15.80;90.50;;;;;;5052633;28;20028;-76
2021/09/22 09:38:50;;;;;;;19.08;8.95;;;15.90;90.30;;;;;;5053146;28;20462;-77
2021/09/22 09:41:26;;;;;;;14.85;8.02;;;15.90;90.20;;;;;;5051242;28;20060;-76
2021/09/22 09:43:52;;;;;;;13.75;8.07;;;16.00;90.10;;;;;;5053100;28;20029;-76
2021/09/22 09:46:23;;;;;;;14.13;7.43;;;16.10;90.00;;;;;;5052672;28;20033;-75
2021/09/22 09:49:01;;;;;;;13.85;7.32;;;16.20;89.70;;;;;;5051606;28;20021;-75
2021/09/22 09:51:41;;;;;;;15.98;8.40;;;16.20;89.30;;;;;;5052881;28;20017;-74
2021/09/22 09:54:13;;;;;;;18.35;8.45;;;16.30;88.90;;;;;;5050636;28;20033;-75
2021/09/22 09:56:39;;;;;;;14.52;7.80;;;16.30;88.70;;;;;;5052924;28;20104;-76
2021/09/22 09:59:05;;;;;;;14.48;7.57;;;16.30;88.50;;;;;;5052273;28;20029;-75
2021/09/22 10:01:42;;;;;;;15.70;7.97;;;16.40;88.40;;;;;;5052430;28;20021;-75
2021/09/22 10:04:11;;;;;;;14.40;7.22;;;16.50;88.00;;;;;;5051995;28;20025;-74
2021/09/22 10:06:37;;;;;;;13.18;7.38;;;16.50;87.90;;;;;;5051143;28;20492;-75
2021/09/22 10:09:04;;;;;;;16.42;7.43;;;16.60;87.80;;;;;;5050549;28;20120;-76
2021/09/22 10:11:34;;;;;;;11.07;6.50;;;16.60;87.80;;;;;;5052436;28;20112;-74
2021/09/22 10:14:01;;;;;;;14.57;7.30;;;16.60;87.60;;;;;;5050233;28;20040;-74
2021/09/22 10:16:28;;;;;;;16.75;6.82;;;16.70;87.30;;;;;;5050947;28;20033;-74
2021/09/22 10:18:57;;;;;;;14.52;7.72;;;16.70;87.20;;;;;;5052436;28;20470;-74
2021/09/22 10:21:24;;;;;;;14.95;6.88;;;16.80;86.90;;;;;;5051686;28;20029;-74
2021/09/22 10:23:52;;;;;;;13.90;6.38;;;16.80;86.70;;;;;;5052289;28;20021;-74
2021/09/22 10:26:18;;;;;;;15.82;7.03;;;16.90;86.50;;;;;;5051455;28;20112;-74
2021/09/22 10:28:46;;;;;;;14.55;6.85;;;16.90;86.40;;;;;;5052216;28;20102;-74
2021/09/22 10:31:34;;;;;;;11.45;5.45;;;17.00;86.10;;;;;;5051668;28;20107;-75
2021/09/22 10:34:00;;;;;;;15.55;6.55;;;17.10;85.80;;;;;;5051253;28;20139;-75
2021/09/22 10:36:38;;;;;;;13.65;6.93;;;17.10;85.50;;;;;;5052030;28;20030;-75
2021/09/22 10:39:05;;;;;;;11.25;5.80;;;17.20;85.30;;;;;;5051895;28;20476;-75
2021/09/22 10:41:37;;;;;;;14.77;7.30;;;17.30;85.80;;;;;;5052102;28;20515;-75
2021/09/22 10:44:04;;;;;;;12.80;6.22;;;17.30;85.00;;;;;;5050124;28;20025;-75
2021/09/22 10:46:30;;;;;;;14.13;7.40;;;17.40;84.90;;;;;;5050628;28;20036;-74
2021/09/22 10:48:59;;;;;;;18.80;8.43;;;17.50;84.60;;;;;;5051798;28;20036;-74
2021/09/22 10:51:35;;;;;;;12.43;6.55;;;17.50;84.50;;;;;;5051273;28;20112;-74
2021/09/22 10:54:22;;;;;;;14.43;7.55;;;17.60;84.40;;;;;;5051711;28;20021;-74
2021/09/22 10:56:57;;;;;;;11.60;6.55;;;17.70;84.30;;;;;;5051815;28;20056;-77
2021/09/22 10:59:34;;;;;;;13.32;7.10;;;17.70;84.00;;;;;;5050013;28;20029;-74
2021/09/22 11:02:01;;;;;;;12.05;6.70;;;17.70;83.90;;;;;;5051806;28;20454;-74
2021/09/22 11:04:46;;;;;;;12.35;6.30;;;17.80;83.90;;;;;;5051531;28;20031;-74
2021/09/22 11:07:12;;;;;;;11.68;6.00;;;17.90;83.80;;;;;;5050825;28;20036;-75
2021/09/22 11:09:38;;;;;;;12.82;7.03;;;17.90;83.60;;;;;;5051632;28;20025;-75
2021/09/22 11:12:05;;;;;;;11.77;6.43;;;18.00;83.40;;;;;;5051120;28;20408;-74
2021/09/22 11:14:43;;;;;;;15.60;6.55;;;18.10;83.10;;;;;;5051880;28;20103;-74
2021/09/22 11:17:18;;;;;;;13.35;6.30;;;18.10;83.50;;;;;;5051015;28;20024;-74
2021/09/22 11:19:50;;;;;;;8.88;5.10;;;18.20;82.60;;;;;;5051683;28;20053;-74
2021/09/22 11:22:28;;;;;;;11.93;5.95;;;18.20;82.20;;;;;;5050757;28;20027;-74
2021/09/22 11:25:02;;;;;;;8.55;4.00;;;18.30;81.80;;;;;;5050399;28;20384;-75
2021/09/22 11:27:29;;;;;;;9.05;4.63;;;18.30;81.50;;;;;;5049693;28;20092;-75
2021/09/22 11:30:03;;;;;;;12.70;6.30;;;18.40;81.40;;;;;;5050259;28;20025;-75
2021/09/22 11:32:34;;;;;;;12.13;6.30;;;18.50;81.10;;;;;;5049548;28;20504;-75
2021/09/22 11:35:10;;;;;;;11.85;6.10;;;18.60;80.70;;;;;;5049754;28;20485;-75
2021/09/22 11:37:43;;;;;;;9.02;4.88;;;18.70;80.50;;;;;;5050071;28;20021;-74
2021/09/22 11:40:33;;;;;;;11.50;5.80;;;18.80;80.20;;;;;;5050928;28;20028;-77
2021/09/22 11:43:06;;;;;;;13.13;7.60;;;18.90;79.60;;;;;;5064307;28;20124;-77
2021/09/22 11:45:34;;;;;;;11.63;5.88;;;19.00;79.30;;;;;;5052174;28;20275;-76
2021/09/22 11:48:00;;;;;;;10.68;5.93;;;19.00;79.30;;;;;;5055131;28;20097;-76
2021/09/22 11:50:52;;;;;;;14.45;6.10;;;19.00;79.20;;;;;;5054315;28;20028;-75
2021/09/22 11:53:20;;;;;;;10.95;6.03;;;19.10;78.90;;;;;;5068393;28;20053;-75
2021/09/22 11:55:48;;;;;;;9.38;4.50;;;19.20;78.70;;;;;;5055003;28;20037;-75
2021/09/22 11:58:16;;;;;;;9.57;4.72;;;19.20;78.40;;;;;;5054548;28;20021;-75
2021/09/22 12:00:44;;;;;;;8.60;4.95;;;19.30;78.20;;;;;;5053740;28;20096;-75
2021/09/22 12:03:13;;;;;;;10.20;5.45;;;19.30;77.90;;;;;;5054132;28;20440;-74
2021/09/22 12:05:40;;;;;;;9.98;5.20;;;19.30;77.70;;;;;;5054925;28;20021;-75
2021/09/22 12:08:06;;;;;;;10.20;5.45;;;19.40;78.10;;;;;;5054845;28;20025;-75
2021/09/22 12:10:33;;;;;;;10.38;4.75;;;19.40;77.70;;;;;;5054916;28;20021;-76
2021/09/22 12:13:00;;;;;;;9.38;4.68;;;19.50;77.30;;;;;;5053349;28;20476;-76
2021/09/22 12:15:27;;;;;;;12.18;5.50;;;19.50;77.00;;;;;;5053937;28;20106;-76
2021/09/22 12:17:53;;;;;;;6.50;3.83;;;19.50;76.60;;;;;;5054397;28;20444;-75
2021/09/22 12:20:19;;;;;;;8.10;4.07;;;19.50;76.70;;;;;;5052765;28;20021;-75
2021/09/22 12:23:09;;;;;;;13.27;5.45;;;19.50;76.70;;;;;;5054764;28;20067;-75
2021/09/22 12:25:36;;;;;;;9.15;4.30;;;19.50;76.10;;;;;;5053311;28;20075;-75
2021/09/22 12:28:03;;;;;;;10.73;4.68;;;19.50;76.10;;;;;;5054469;28;20027;-75
2021/09/22 12:30:34;;;;;;;7.88;3.53;;;19.50;76.00;;;;;;5052493;28;20053;-75
2021/09/22 12:33:04;;;;;;;9.95;4.65;;;19.40;76.00;;;;;;5053314;28;20058;-75
2021/09/22 12:35:43;;;;;;;7.85;3.88;;;19.40;75.80;;;;;;5052033;28;20476;-74
2021/09/22 12:38:14;;;;;;;7.03;4.20;;;19.40;75.80;;;;;;5052758;28;20044;-74